sensor_id;sensor_type;location;lat;lon;timestamp;P1;durP1;ratioP1;P2;durP2;ratioP2
61358;SDS011;47228;46.762;23.598;2024-02-14T00:01:41;20.10;;;10.30;;
61358;SDS011;47228;46.762;23.598;2024-02-14T00:04:10;26.80;;;11.10;;
61358;SDS011;47228;46.762;23.598;2024-02-14T00:06:41;20.90;;;10.50;;
61358;SDS011;47228;46.762;23.598;2024-02-14T00:09:09;22.20;;;10.40;;
61358;SDS011;47228;46.762;23.598;2024-02-14T00:11:38;22.30;;;10.80;;
61358;SDS011;47228;46.762;23.598;2024-02-14T00:14:06;21.50;;;10.10;;
61358;SDS011;47228;46.762;23.598;2024-02-14T00:16:34;21.40;;;9.40;;
61358;SDS011;47228;46.762;23.598;2024-02-14T00:19:03;18.40;;;9.80;;
61358;SDS011;47228;46.762;23.598;2024-02-14T00:21:32;25.30;;;10.50;;
61358;SDS011;47228;46.762;23.598;2024-02-14T00:24:01;23.30;;;10.30;;
61358;SDS011;47228;46.762;23.598;2024-02-14T00:26:30;22.20;;;11.40;;
61358;SDS011;47228;46.762;23.598;2024-02-14T00:28:58;23.20;;;9.80;;
61358;SDS011;47228;46.762;23.598;2024-02-14T00:31:27;21.50;;;9.80;;
61358;SDS011;47228;46.762;23.598;2024-02-14T00:33:55;21.10;;;10.60;;
61358;SDS011;47228;46.762;23.598;2024-02-14T00:36:24;18.60;;;9.50;;
61358;SDS011;47228;46.762;23.598;2024-02-14T00:38:52;21.20;;;9.90;;
61358;SDS011;47228;46.762;23.598;2024-02-14T00:41:20;25.30;;;10.80;;
61358;SDS011;47228;46.762;23.598;2024-02-14T00:43:48;21.60;;;10.10;;
61358;SDS011;47228;46.762;23.598;2024-02-14T00:46:17;23.20;;;10.30;;
61358;SDS011;47228;46.762;23.598;2024-02-14T00:48:45;19.80;;;9.60;;
61358;SDS011;47228;46.762;23.598;2024-02-14T00:51:13;18.50;;;9.90;;
61358;SDS011;47228;46.762;23.598;2024-02-14T00:53:41;22.60;;;10.80;;
61358;SDS011;47228;46.762;23.598;2024-02-14T00:56:10;21.70;;;10.00;;
61358;SDS011;47228;46.762;23.598;2024-02-14T00:58:38;20.20;;;9.40;;
61358;SDS011;47228;46.762;23.598;2024-02-14T01:01:06;20.30;;;10.60;;
61358;SDS011;47228;46.762;23.598;2024-02-14T01:03:35;22.80;;;9.90;;
61358;SDS011;47228;46.762;23.598;2024-02-14T01:06:03;18.80;;;9.00;;
61358;SDS011;47228;46.762;23.598;2024-02-14T01:08:32;20.70;;;9.40;;
61358;SDS011;47228;46.762;23.598;2024-02-14T01:11:01;18.00;;;9.50;;
61358;SDS011;47228;46.762;23.598;2024-02-14T01:13:29;21.20;;;9.40;;
61358;SDS011;47228;46.762;23.598;2024-02-14T01:15:57;18.70;;;9.70;;
61358;SDS011;47228;46.762;23.598;2024-02-14T01:18:25;21.00;;;9.70;;
61358;SDS011;47228;46.762;23.598;2024-02-14T01:20:54;20.60;;;9.60;;
61358;SDS011;47228;46.762;23.598;2024-02-14T01:23:22;19.90;;;9.50;;
61358;SDS011;47228;46.762;23.598;2024-02-14T01:25:51;17.10;;;9.20;;
61358;SDS011;47228;46.762;23.598;2024-02-14T01:28:19;20.30;;;9.60;;
61358;SDS011;47228;46.762;23.598;2024-02-14T01:30:47;20.60;;;9.00;;
61358;SDS011;47228;46.762;23.598;2024-02-14T01:33:15;18.10;;;9.40;;
61358;SDS011;47228;46.762;23.598;2024-02-14T01:35:44;17.00;;;8.70;;
61358;SDS011;47228;46.762;23.598;2024-02-14T01:38:13;18.10;;;9.10;;
61358;SDS011;47228;46.762;23.598;2024-02-14T01:40:42;21.20;;;9.10;;
61358;SDS011;47228;46.762;23.598;2024-02-14T01:43:12;20.50;;;9.30;;
61358;SDS011;47228;46.762;23.598;2024-02-14T01:45:42;20.00;;;9.80;;
61358;SDS011;47228;46.762;23.598;2024-02-14T01:48:10;18.50;;;9.10;;
61358;SDS011;47228;46.762;23.598;2024-02-14T01:50:39;20.40;;;9.10;;
61358;SDS011;47228;46.762;23.598;2024-02-14T01:53:08;16.90;;;8.60;;
61358;SDS011;47228;46.762;23.598;2024-02-14T01:55:36;16.90;;;8.70;;
61358;SDS011;47228;46.762;23.598;2024-02-14T01:58:05;18.40;;;9.70;;
61358;SDS011;47228;46.762;23.598;2024-02-14T02:00:33;17.80;;;8.30;;
61358;SDS011;47228;46.762;23.598;2024-02-14T02:03:03;16.30;;;8.20;;
61358;SDS011;47228;46.762;23.598;2024-02-14T02:05:32;18.10;;;9.00;;
61358;SDS011;47228;46.762;23.598;2024-02-14T02:08:02;18.90;;;9.30;;
61358;SDS011;47228;46.762;23.598;2024-02-14T02:10:30;17.40;;;8.70;;
61358;SDS011;47228;46.762;23.598;2024-02-14T02:12:58;17.10;;;7.60;;
61358;SDS011;47228;46.762;23.598;2024-02-14T02:15:28;17.00;;;8.80;;
61358;SDS011;47228;46.762;23.598;2024-02-14T02:17:57;17.60;;;8.60;;
61358;SDS011;47228;46.762;23.598;2024-02-14T02:20:27;20.10;;;9.10;;
61358;SDS011;47228;46.762;23.598;2024-02-14T02:22:56;17.10;;;8.50;;
61358;SDS011;47228;46.762;23.598;2024-02-14T02:25:24;15.20;;;8.10;;
61358;SDS011;47228;46.762;23.598;2024-02-14T02:27:54;16.80;;;8.40;;
61358;SDS011;47228;46.762;23.598;2024-02-14T02:30:24;18.50;;;8.90;;
61358;SDS011;47228;46.762;23.598;2024-02-14T02:32:53;15.30;;;8.00;;
61358;SDS011;47228;46.762;23.598;2024-02-14T02:35:21;17.30;;;7.70;;
61358;SDS011;47228;46.762;23.598;2024-02-14T02:37:49;15.40;;;8.20;;
61358;SDS011;47228;46.762;23.598;2024-02-14T02:40:18;15.10;;;8.40;;
61358;SDS011;47228;46.762;23.598;2024-02-14T02:42:49;16.60;;;8.10;;
61358;SDS011;47228;46.762;23.598;2024-02-14T02:45:18;17.50;;;8.70;;
61358;SDS011;47228;46.762;23.598;2024-02-14T02:47:47;16.30;;;8.40;;
61358;SDS011;47228;46.762;23.598;2024-02-14T02:50:17;18.00;;;8.30;;
61358;SDS011;47228;46.762;23.598;2024-02-14T02:52:47;15.80;;;7.90;;
61358;SDS011;47228;46.762;23.598;2024-02-14T02:55:16;13.80;;;7.70;;
61358;SDS011;47228;46.762;23.598;2024-02-14T02:57:46;18.10;;;8.70;;
61358;SDS011;47228;46.762;23.598;2024-02-14T03:00:14;15.30;;;7.90;;
61358;SDS011;47228;46.762;23.598;2024-02-14T03:02:43;15.60;;;8.90;;
61358;SDS011;47228;46.762;23.598;2024-02-14T03:05:13;19.10;;;9.40;;
61358;SDS011;47228;46.762;23.598;2024-02-14T03:07:47;15.90;;;8.80;;
61358;SDS011;47228;46.762;23.598;2024-02-14T03:10:16;18.30;;;8.70;;
61358;SDS011;47228;46.762;23.598;2024-02-14T03:12:48;19.30;;;8.70;;
61358;SDS011;47228;46.762;23.598;2024-02-14T03:15:17;15.90;;;8.40;;
61358;SDS011;47228;46.762;23.598;2024-02-14T03:17:46;19.50;;;8.80;;
61358;SDS011;47228;46.762;23.598;2024-02-14T03:20:15;17.80;;;9.10;;
61358;SDS011;47228;46.762;23.598;2024-02-14T03:22:45;17.70;;;9.10;;
61358;SDS011;47228;46.762;23.598;2024-02-14T03:25:16;18.60;;;8.80;;
61358;SDS011;47228;46.762;23.598;2024-02-14T03:27:46;21.40;;;9.60;;
61358;SDS011;47228;46.762;23.598;2024-02-14T03:30:15;22.60;;;10.40;;
61358;SDS011;47228;46.762;23.598;2024-02-14T03:32:46;17.10;;;8.30;;
61358;SDS011;47228;46.762;23.598;2024-02-14T03:35:15;19.00;;;9.70;;
61358;SDS011;47228;46.762;23.598;2024-02-14T03:37:45;19.60;;;9.90;;
61358;SDS011;47228;46.762;23.598;2024-02-14T03:40:16;18.40;;;9.60;;
61358;SDS011;47228;46.762;23.598;2024-02-14T03:42:44;17.90;;;9.90;;
61358;SDS011;47228;46.762;23.598;2024-02-14T03:45:12;18.60;;;10.90;;
61358;SDS011;47228;46.762;23.598;2024-02-14T03:47:41;20.30;;;9.70;;
61358;SDS011;47228;46.762;23.598;2024-02-14T03:50:10;21.20;;;9.80;;
61358;SDS011;47228;46.762;23.598;2024-02-14T03:52:39;20.30;;;10.80;;
61358;SDS011;47228;46.762;23.598;2024-02-14T03:55:07;23.70;;;11.20;;
61358;SDS011;47228;46.762;23.598;2024-02-14T03:57:36;23.30;;;11.00;;
61358;SDS011;47228;46.762;23.598;2024-02-14T04:00:06;24.60;;;10.60;;
61358;SDS011;47228;46.762;23.598;2024-02-14T04:02:39;23.60;;;11.30;;
61358;SDS011;47228;46.762;23.598;2024-02-14T04:05:08;24.70;;;11.20;;
61358;SDS011;47228;46.762;23.598;2024-02-14T04:07:37;19.80;;;10.20;;
61358;SDS011;47228;46.762;23.598;2024-02-14T04:10:06;24.30;;;11.20;;
61358;SDS011;47228;46.762;23.598;2024-02-14T04:12:35;21.60;;;11.60;;
61358;SDS011;47228;46.762;23.598;2024-02-14T04:15:03;24.90;;;12.50;;
61358;SDS011;47228;46.762;23.598;2024-02-14T04:17:32;22.40;;;11.20;;
61358;SDS011;47228;46.762;23.598;2024-02-14T04:20:00;23.20;;;13.00;;
61358;SDS011;47228;46.762;23.598;2024-02-14T04:22:29;22.10;;;10.90;;
61358;SDS011;47228;46.762;23.598;2024-02-14T04:24:57;19.40;;;11.50;;
61358;SDS011;47228;46.762;23.598;2024-02-14T04:27:25;24.90;;;12.80;;
61358;SDS011;47228;46.762;23.598;2024-02-14T04:29:55;25.90;;;12.10;;
61358;SDS011;47228;46.762;23.598;2024-02-14T04:32:24;26.30;;;12.90;;
61358;SDS011;47228;46.762;23.598;2024-02-14T04:34:52;23.70;;;12.30;;
61358;SDS011;47228;46.762;23.598;2024-02-14T04:37:21;22.50;;;12.70;;
61358;SDS011;47228;46.762;23.598;2024-02-14T04:39:50;24.00;;;12.30;;
61358;SDS011;47228;46.762;23.598;2024-02-14T04:42:18;22.60;;;11.90;;
61358;SDS011;47228;46.762;23.598;2024-02-14T04:44:46;25.50;;;12.50;;
61358;SDS011;47228;46.762;23.598;2024-02-14T04:47:14;22.90;;;12.60;;
61358;SDS011;47228;46.762;23.598;2024-02-14T04:49:42;24.80;;;12.70;;
61358;SDS011;47228;46.762;23.598;2024-02-14T04:52:10;25.50;;;11.90;;
61358;SDS011;47228;46.762;23.598;2024-02-14T04:54:43;26.10;;;14.00;;
61358;SDS011;47228;46.762;23.598;2024-02-14T04:57:11;22.60;;;13.60;;
61358;SDS011;47228;46.762;23.598;2024-02-14T04:59:40;27.00;;;14.20;;
61358;SDS011;47228;46.762;23.598;2024-02-14T05:02:08;25.80;;;13.70;;
61358;SDS011;47228;46.762;23.598;2024-02-14T05:04:36;25.20;;;13.80;;
61358;SDS011;47228;46.762;23.598;2024-02-14T05:07:05;27.80;;;13.30;;
61358;SDS011;47228;46.762;23.598;2024-02-14T05:09:35;24.00;;;13.40;;
61358;SDS011;47228;46.762;23.598;2024-02-14T05:12:03;22.60;;;12.10;;
61358;SDS011;47228;46.762;23.598;2024-02-14T05:14:31;25.50;;;13.30;;
61358;SDS011;47228;46.762;23.598;2024-02-14T05:17:00;25.20;;;13.30;;
61358;SDS011;47228;46.762;23.598;2024-02-14T05:19:29;21.50;;;12.70;;
61358;SDS011;47228;46.762;23.598;2024-02-14T05:21:57;27.00;;;13.30;;
61358;SDS011;47228;46.762;23.598;2024-02-14T05:24:26;27.80;;;12.40;;
61358;SDS011;47228;46.762;23.598;2024-02-14T05:26:58;25.90;;;11.40;;
61358;SDS011;47228;46.762;23.598;2024-02-14T05:29:27;25.20;;;11.80;;
61358;SDS011;47228;46.762;23.598;2024-02-14T05:31:55;20.50;;;11.80;;
61358;SDS011;47228;46.762;23.598;2024-02-14T05:34:23;21.70;;;13.40;;
61358;SDS011;47228;46.762;23.598;2024-02-14T05:36:52;23.00;;;13.00;;
61358;SDS011;47228;46.762;23.598;2024-02-14T05:39:21;21.40;;;12.50;;
61358;SDS011;47228;46.762;23.598;2024-02-14T05:41:49;22.60;;;11.80;;
61358;SDS011;47228;46.762;23.598;2024-02-14T05:44:18;21.90;;;12.00;;
61358;SDS011;47228;46.762;23.598;2024-02-14T05:46:46;20.60;;;11.30;;
61358;SDS011;47228;46.762;23.598;2024-02-14T05:49:14;21.90;;;12.40;;
61358;SDS011;47228;46.762;23.598;2024-02-14T05:51:42;21.80;;;11.60;;
61358;SDS011;47228;46.762;23.598;2024-02-14T05:54:10;20.20;;;12.00;;
61358;SDS011;47228;46.762;23.598;2024-02-14T05:56:38;23.00;;;12.10;;
61358;SDS011;47228;46.762;23.598;2024-02-14T05:59:06;18.40;;;10.60;;
61358;SDS011;47228;46.762;23.598;2024-02-14T06:01:35;22.40;;;11.50;;
61358;SDS011;47228;46.762;23.598;2024-02-14T06:04:03;22.70;;;11.80;;
61358;SDS011;47228;46.762;23.598;2024-02-14T06:06:32;23.60;;;12.30;;
61358;SDS011;47228;46.762;23.598;2024-02-14T06:09:00;20.70;;;11.70;;
61358;SDS011;47228;46.762;23.598;2024-02-14T06:11:28;21.30;;;11.00;;
61358;SDS011;47228;46.762;23.598;2024-02-14T06:13:56;21.10;;;11.30;;
61358;SDS011;47228;46.762;23.598;2024-02-14T06:16:24;20.30;;;11.50;;
61358;SDS011;47228;46.762;23.598;2024-02-14T06:18:53;21.50;;;12.30;;
61358;SDS011;47228;46.762;23.598;2024-02-14T06:21:21;18.40;;;11.00;;
61358;SDS011;47228;46.762;23.598;2024-02-14T06:23:50;19.00;;;11.00;;
61358;SDS011;47228;46.762;23.598;2024-02-14T06:26:19;20.90;;;12.20;;
61358;SDS011;47228;46.762;23.598;2024-02-14T06:28:47;20.00;;;11.30;;
61358;SDS011;47228;46.762;23.598;2024-02-14T06:31:22;19.80;;;10.80;;
61358;SDS011;47228;46.762;23.598;2024-02-14T06:33:50;19.70;;;10.30;;
61358;SDS011;47228;46.762;23.598;2024-02-14T06:36:19;18.50;;;9.90;;
61358;SDS011;47228;46.762;23.598;2024-02-14T06:38:47;25.20;;;10.80;;
61358;SDS011;47228;46.762;23.598;2024-02-14T06:41:17;20.70;;;10.40;;
61358;SDS011;47228;46.762;23.598;2024-02-14T06:43:45;21.10;;;11.40;;
61358;SDS011;47228;46.762;23.598;2024-02-14T06:46:14;20.50;;;10.20;;
61358;SDS011;47228;46.762;23.598;2024-02-14T06:48:42;21.30;;;10.60;;
61358;SDS011;47228;46.762;23.598;2024-02-14T06:51:12;21.00;;;10.70;;
61358;SDS011;47228;46.762;23.598;2024-02-14T06:53:40;20.00;;;10.60;;
61358;SDS011;47228;46.762;23.598;2024-02-14T06:56:08;23.10;;;10.50;;
61358;SDS011;47228;46.762;23.598;2024-02-14T06:58:36;19.80;;;10.60;;
61358;SDS011;47228;46.762;23.598;2024-02-14T07:01:05;21.00;;;10.60;;
61358;SDS011;47228;46.762;23.598;2024-02-14T07:03:33;22.10;;;11.40;;
61358;SDS011;47228;46.762;23.598;2024-02-14T07:06:02;21.90;;;11.70;;
61358;SDS011;47228;46.762;23.598;2024-02-14T07:08:30;18.00;;;10.90;;
61358;SDS011;47228;46.762;23.598;2024-02-14T07:10:59;17.20;;;9.90;;
61358;SDS011;47228;46.762;23.598;2024-02-14T07:13:27;19.50;;;9.80;;
61358;SDS011;47228;46.762;23.598;2024-02-14T07:15:56;18.70;;;10.40;;
61358;SDS011;47228;46.762;23.598;2024-02-14T07:18:24;22.60;;;9.80;;
61358;SDS011;47228;46.762;23.598;2024-02-14T07:20:52;18.60;;;10.20;;
61358;SDS011;47228;46.762;23.598;2024-02-14T07:23:21;19.60;;;9.90;;
61358;SDS011;47228;46.762;23.598;2024-02-14T07:25:49;23.10;;;10.90;;
61358;SDS011;47228;46.762;23.598;2024-02-14T07:28:17;19.60;;;10.10;;
61358;SDS011;47228;46.762;23.598;2024-02-14T07:30:46;23.70;;;10.00;;
61358;SDS011;47228;46.762;23.598;2024-02-14T07:33:15;21.20;;;10.50;;
61358;SDS011;47228;46.762;23.598;2024-02-14T07:35:44;20.00;;;9.60;;
61358;SDS011;47228;46.762;23.598;2024-02-14T07:38:12;17.50;;;9.20;;
61358;SDS011;47228;46.762;23.598;2024-02-14T07:40:40;18.60;;;9.70;;
61358;SDS011;47228;46.762;23.598;2024-02-14T07:43:09;18.20;;;10.50;;
61358;SDS011;47228;46.762;23.598;2024-02-14T07:45:37;16.70;;;9.10;;
61358;SDS011;47228;46.762;23.598;2024-02-14T07:48:06;16.60;;;9.10;;
61358;SDS011;47228;46.762;23.598;2024-02-14T07:50:36;17.10;;;9.40;;
61358;SDS011;47228;46.762;23.598;2024-02-14T07:53:05;23.60;;;10.10;;
61358;SDS011;47228;46.762;23.598;2024-02-14T07:55:34;18.60;;;9.70;;
61358;SDS011;47228;46.762;23.598;2024-02-14T07:58:02;19.40;;;10.90;;
61358;SDS011;47228;46.762;23.598;2024-02-14T08:00:30;15.50;;;9.00;;
61358;SDS011;47228;46.762;23.598;2024-02-14T08:02:59;19.10;;;9.20;;
61358;SDS011;47228;46.762;23.598;2024-02-14T08:05:27;17.50;;;9.10;;
61358;SDS011;47228;46.762;23.598;2024-02-14T08:07:57;21.50;;;10.20;;
61358;SDS011;47228;46.762;23.598;2024-02-14T08:10:25;17.50;;;8.80;;
61358;SDS011;47228;46.762;23.598;2024-02-14T08:12:55;19.20;;;9.50;;
61358;SDS011;47228;46.762;23.598;2024-02-14T08:15:23;16.10;;;9.30;;
61358;SDS011;47228;46.762;23.598;2024-02-14T08:17:51;15.80;;;9.00;;
61358;SDS011;47228;46.762;23.598;2024-02-14T08:20:23;17.30;;;8.70;;
61358;SDS011;47228;46.762;23.598;2024-02-14T08:22:52;17.70;;;9.00;;
61358;SDS011;47228;46.762;23.598;2024-02-14T08:25:20;17.90;;;8.50;;
61358;SDS011;47228;46.762;23.598;2024-02-14T08:27:48;18.60;;;8.70;;
61358;SDS011;47228;46.762;23.598;2024-02-14T08:30:17;18.10;;;8.80;;
61358;SDS011;47228;46.762;23.598;2024-02-14T08:32:47;25.70;;;9.50;;
61358;SDS011;47228;46.762;23.598;2024-02-14T08:35:15;22.50;;;8.80;;
61358;SDS011;47228;46.762;23.598;2024-02-14T08:37:44;19.20;;;8.40;;
61358;SDS011;47228;46.762;23.598;2024-02-14T08:40:12;20.20;;;8.50;;
61358;SDS011;47228;46.762;23.598;2024-02-14T08:42:40;17.30;;;8.70;;
61358;SDS011;47228;46.762;23.598;2024-02-14T08:45:08;17.50;;;8.80;;
61358;SDS011;47228;46.762;23.598;2024-02-14T08:47:37;16.60;;;8.10;;
61358;SDS011;47228;46.762;23.598;2024-02-14T08:50:06;15.30;;;8.40;;
61358;SDS011;47228;46.762;23.598;2024-02-14T08:52:35;17.00;;;8.30;;
61358;SDS011;47228;46.762;23.598;2024-02-14T08:55:05;18.40;;;9.20;;
61358;SDS011;47228;46.762;23.598;2024-02-14T08:57:36;13.90;;;8.20;;
61358;SDS011;47228;46.762;23.598;2024-02-14T09:00:05;15.60;;;7.60;;
61358;SDS011;47228;46.762;23.598;2024-02-14T09:02:35;17.40;;;7.60;;
61358;SDS011;47228;46.762;23.598;2024-02-14T09:05:04;16.10;;;7.70;;
61358;SDS011;47228;46.762;23.598;2024-02-14T09:07:33;12.70;;;7.90;;
61358;SDS011;47228;46.762;23.598;2024-02-14T09:10:03;17.10;;;8.60;;
61358;SDS011;47228;46.762;23.598;2024-02-14T09:12:33;13.40;;;7.90;;
61358;SDS011;47228;46.762;23.598;2024-02-14T09:15:01;16.00;;;8.40;;
61358;SDS011;47228;46.762;23.598;2024-02-14T09:17:31;14.70;;;7.80;;
61358;SDS011;47228;46.762;23.598;2024-02-14T09:19:59;15.60;;;7.60;;
61358;SDS011;47228;46.762;23.598;2024-02-14T09:22:29;14.60;;;7.60;;
61358;SDS011;47228;46.762;23.598;2024-02-14T09:24:57;18.90;;;8.90;;
61358;SDS011;47228;46.762;23.598;2024-02-14T09:27:25;17.40;;;8.70;;
61358;SDS011;47228;46.762;23.598;2024-02-14T09:29:53;18.70;;;8.10;;
61358;SDS011;47228;46.762;23.598;2024-02-14T09:32:22;16.50;;;8.50;;
61358;SDS011;47228;46.762;23.598;2024-02-14T09:34:50;14.70;;;8.00;;
61358;SDS011;47228;46.762;23.598;2024-02-14T09:37:18;18.00;;;8.90;;
61358;SDS011;47228;46.762;23.598;2024-02-14T09:39:46;18.50;;;8.40;;
61358;SDS011;47228;46.762;23.598;2024-02-14T09:42:16;14.70;;;8.70;;
61358;SDS011;47228;46.762;23.598;2024-02-14T09:44:47;14.90;;;8.10;;
61358;SDS011;47228;46.762;23.598;2024-02-14T09:47:20;15.60;;;8.20;;
61358;SDS011;47228;46.762;23.598;2024-02-14T09:49:49;14.50;;;8.30;;
61358;SDS011;47228;46.762;23.598;2024-02-14T09:52:20;16.50;;;7.90;;
61358;SDS011;47228;46.762;23.598;2024-02-14T09:54:51;16.80;;;7.30;;
61358;SDS011;47228;46.762;23.598;2024-02-14T09:57:20;15.80;;;7.60;;
61358;SDS011;47228;46.762;23.598;2024-02-14T09:59:51;17.80;;;7.80;;
61358;SDS011;47228;46.762;23.598;2024-02-14T10:02:21;15.90;;;7.70;;
61358;SDS011;47228;46.762;23.598;2024-02-14T10:04:49;14.10;;;7.20;;
61358;SDS011;47228;46.762;23.598;2024-02-14T10:07:18;13.80;;;7.20;;
61358;SDS011;47228;46.762;23.598;2024-02-14T10:09:47;15.60;;;7.70;;
61358;SDS011;47228;46.762;23.598;2024-02-14T10:12:16;14.50;;;7.50;;
61358;SDS011;47228;46.762;23.598;2024-02-14T10:14:45;14.20;;;6.50;;
61358;SDS011;47228;46.762;23.598;2024-02-14T10:17:19;15.00;;;7.10;;
61358;SDS011;47228;46.762;23.598;2024-02-14T10:20:05;21.40;;;7.60;;
61358;SDS011;47228;46.762;23.598;2024-02-14T10:22:35;14.30;;;7.10;;
61358;SDS011;47228;46.762;23.598;2024-02-14T10:25:04;14.70;;;7.60;;
61358;SDS011;47228;46.762;23.598;2024-02-14T10:27:37;14.00;;;6.80;;
61358;SDS011;47228;46.762;23.598;2024-02-14T10:30:06;17.10;;;7.40;;
61358;SDS011;47228;46.762;23.598;2024-02-14T10:32:41;16.40;;;7.10;;
61358;SDS011;47228;46.762;23.598;2024-02-14T10:35:15;12.60;;;6.30;;
61358;SDS011;47228;46.762;23.598;2024-02-14T10:37:44;12.60;;;7.00;;
61358;SDS011;47228;46.762;23.598;2024-02-14T10:40:15;15.30;;;7.30;;
61358;SDS011;47228;46.762;23.598;2024-02-14T10:42:44;14.60;;;7.20;;
61358;SDS011;47228;46.762;23.598;2024-02-14T10:45:12;11.70;;;6.60;;
61358;SDS011;47228;46.762;23.598;2024-02-14T10:47:41;11.00;;;6.30;;
61358;SDS011;47228;46.762;23.598;2024-02-14T10:50:12;14.20;;;7.00;;
61358;SDS011;47228;46.762;23.598;2024-02-14T10:52:42;14.60;;;6.50;;
61358;SDS011;47228;46.762;23.598;2024-02-14T10:55:11;12.60;;;6.40;;
61358;SDS011;47228;46.762;23.598;2024-02-14T10:57:40;12.60;;;7.20;;
61358;SDS011;47228;46.762;23.598;2024-02-14T11:00:10;13.10;;;6.10;;
61358;SDS011;47228;46.762;23.598;2024-02-14T11:02:43;12.70;;;5.90;;
61358;SDS011;47228;46.762;23.598;2024-02-14T11:05:12;11.00;;;6.20;;
61358;SDS011;47228;46.762;23.598;2024-02-14T11:07:47;12.70;;;6.30;;
61358;SDS011;47228;46.762;23.598;2024-02-14T11:10:17;12.70;;;6.50;;
61358;SDS011;47228;46.762;23.598;2024-02-14T11:12:46;11.60;;;5.90;;
61358;SDS011;47228;46.762;23.598;2024-02-14T11:15:21;13.50;;;6.80;;
61358;SDS011;47228;46.762;23.598;2024-02-14T11:17:50;14.00;;;6.60;;
61358;SDS011;47228;46.762;23.598;2024-02-14T11:20:31;12.70;;;6.40;;
61358;SDS011;47228;46.762;23.598;2024-02-14T11:23:02;11.60;;;6.00;;
61358;SDS011;47228;46.762;23.598;2024-02-14T11:25:32;14.40;;;6.60;;
61358;SDS011;47228;46.762;23.598;2024-02-14T11:28:17;11.00;;;5.90;;
61358;SDS011;47228;46.762;23.598;2024-02-14T11:30:51;13.90;;;6.90;;
61358;SDS011;47228;46.762;23.598;2024-02-14T11:33:20;12.80;;;6.00;;
61358;SDS011;47228;46.762;23.598;2024-02-14T11:35:50;13.00;;;6.20;;
61358;SDS011;47228;46.762;23.598;2024-02-14T11:38:25;14.80;;;6.20;;
61358;SDS011;47228;46.762;23.598;2024-02-14T11:40:54;13.10;;;6.40;;
61358;SDS011;47228;46.762;23.598;2024-02-14T11:43:24;11.80;;;5.60;;
61358;SDS011;47228;46.762;23.598;2024-02-14T11:45:53;10.70;;;5.20;;
61358;SDS011;47228;46.762;23.598;2024-02-14T11:48:21;11.10;;;5.30;;
61358;SDS011;47228;46.762;23.598;2024-02-14T11:50:53;11.90;;;5.70;;
61358;SDS011;47228;46.762;23.598;2024-02-14T11:53:23;10.00;;;5.50;;
61358;SDS011;47228;46.762;23.598;2024-02-14T11:55:51;13.90;;;5.20;;
61358;SDS011;47228;46.762;23.598;2024-02-14T11:58:19;13.80;;;5.90;;
61358;SDS011;47228;46.762;23.598;2024-02-14T12:00:47;10.30;;;5.70;;
61358;SDS011;47228;46.762;23.598;2024-02-14T12:03:18;12.80;;;5.70;;
61358;SDS011;47228;46.762;23.598;2024-02-14T12:05:52;10.40;;;5.30;;
61358;SDS011;47228;46.762;23.598;2024-02-14T12:08:21;10.80;;;5.20;;
61358;SDS011;47228;46.762;23.598;2024-02-14T12:10:50;11.30;;;5.00;;
61358;SDS011;47228;46.762;23.598;2024-02-14T12:13:19;9.90;;;5.00;;
61358;SDS011;47228;46.762;23.598;2024-02-14T12:15:49;8.50;;;5.00;;
61358;SDS011;47228;46.762;23.598;2024-02-14T12:18:19;10.30;;;4.80;;
61358;SDS011;47228;46.762;23.598;2024-02-14T12:20:49;10.10;;;4.70;;
61358;SDS011;47228;46.762;23.598;2024-02-14T12:23:23;9.60;;;4.90;;
61358;SDS011;47228;46.762;23.598;2024-02-14T12:25:54;9.30;;;4.60;;
61358;SDS011;47228;46.762;23.598;2024-02-14T12:28:30;9.80;;;4.80;;
61358;SDS011;47228;46.762;23.598;2024-02-14T12:30:59;8.90;;;4.20;;
61358;SDS011;47228;46.762;23.598;2024-02-14T12:33:27;9.40;;;4.70;;
61358;SDS011;47228;46.762;23.598;2024-02-14T12:35:57;11.30;;;5.10;;
61358;SDS011;47228;46.762;23.598;2024-02-14T12:38:31;8.80;;;5.00;;
61358;SDS011;47228;46.762;23.598;2024-02-14T12:41:00;10.20;;;5.00;;
61358;SDS011;47228;46.762;23.598;2024-02-14T12:43:29;11.00;;;5.00;;
61358;SDS011;47228;46.762;23.598;2024-02-14T12:45:57;12.40;;;5.20;;
61358;SDS011;47228;46.762;23.598;2024-02-14T12:48:26;12.00;;;5.30;;
61358;SDS011;47228;46.762;23.598;2024-02-14T12:50:57;11.30;;;5.20;;
61358;SDS011;47228;46.762;23.598;2024-02-14T12:53:26;11.10;;;5.40;;
61358;SDS011;47228;46.762;23.598;2024-02-14T12:55:54;9.10;;;5.20;;
61358;SDS011;47228;46.762;23.598;2024-02-14T12:58:22;9.50;;;4.80;;
61358;SDS011;47228;46.762;23.598;2024-02-14T13:00:51;9.50;;;5.10;;
61358;SDS011;47228;46.762;23.598;2024-02-14T13:03:19;8.40;;;4.90;;
61358;SDS011;47228;46.762;23.598;2024-02-14T13:05:48;9.10;;;4.80;;
61358;SDS011;47228;46.762;23.598;2024-02-14T13:08:17;8.90;;;4.40;;
61358;SDS011;47228;46.762;23.598;2024-02-14T13:10:46;9.70;;;4.50;;
61358;SDS011;47228;46.762;23.598;2024-02-14T13:13:14;9.90;;;4.90;;
61358;SDS011;47228;46.762;23.598;2024-02-14T13:15:43;10.00;;;5.20;;
61358;SDS011;47228;46.762;23.598;2024-02-14T13:18:13;9.40;;;5.20;;
61358;SDS011;47228;46.762;23.598;2024-02-14T13:20:42;10.40;;;5.50;;
61358;SDS011;47228;46.762;23.598;2024-02-14T13:23:12;12.20;;;5.70;;
61358;SDS011;47228;46.762;23.598;2024-02-14T13:25:42;9.20;;;5.00;;
61358;SDS011;47228;46.762;23.598;2024-02-14T13:28:10;9.00;;;5.20;;
61358;SDS011;47228;46.762;23.598;2024-02-14T13:30:38;9.10;;;5.40;;
61358;SDS011;47228;46.762;23.598;2024-02-14T13:33:07;9.30;;;5.70;;
61358;SDS011;47228;46.762;23.598;2024-02-14T13:35:35;9.60;;;5.10;;
61358;SDS011;47228;46.762;23.598;2024-02-14T13:38:06;7.50;;;4.90;;
61358;SDS011;47228;46.762;23.598;2024-02-14T13:40:34;10.20;;;4.90;;
61358;SDS011;47228;46.762;23.598;2024-02-14T13:43:03;10.50;;;4.80;;
61358;SDS011;47228;46.762;23.598;2024-02-14T13:45:41;7.40;;;4.60;;
61358;SDS011;47228;46.762;23.598;2024-02-14T13:48:10;8.00;;;5.00;;
61358;SDS011;47228;46.762;23.598;2024-02-14T13:50:39;10.00;;;4.90;;
61358;SDS011;47228;46.762;23.598;2024-02-14T13:53:08;9.50;;;5.10;;
61358;SDS011;47228;46.762;23.598;2024-02-14T13:55:37;10.70;;;4.70;;
61358;SDS011;47228;46.762;23.598;2024-02-14T13:58:06;9.20;;;4.90;;
61358;SDS011;47228;46.762;23.598;2024-02-14T14:00:42;8.20;;;4.60;;
61358;SDS011;47228;46.762;23.598;2024-02-14T14:03:11;7.90;;;4.20;;
61358;SDS011;47228;46.762;23.598;2024-02-14T14:05:40;8.90;;;5.30;;
61358;SDS011;47228;46.762;23.598;2024-02-14T14:08:09;8.70;;;4.80;;
61358;SDS011;47228;46.762;23.598;2024-02-14T14:10:37;12.20;;;4.80;;
61358;SDS011;47228;46.762;23.598;2024-02-14T14:13:05;9.40;;;5.20;;
61358;SDS011;47228;46.762;23.598;2024-02-14T14:15:34;8.40;;;4.40;;
61358;SDS011;47228;46.762;23.598;2024-02-14T14:18:02;9.50;;;4.90;;
61358;SDS011;47228;46.762;23.598;2024-02-14T14:20:30;10.30;;;4.50;;
61358;SDS011;47228;46.762;23.598;2024-02-14T14:22:59;9.10;;;4.80;;
61358;SDS011;47228;46.762;23.598;2024-02-14T14:25:28;9.40;;;4.90;;
61358;SDS011;47228;46.762;23.598;2024-02-14T14:27:58;9.70;;;4.80;;
61358;SDS011;47228;46.762;23.598;2024-02-14T14:30:29;10.10;;;5.40;;